Oilville, VA (23129)

6:51 PM EDT on March 28, 2017 (GMT -0400)
Fox Downs | | Change Station

Elev 340 ft 37.69 °N, 77.77 °W | Updated 5 seconds ago

Partly Cloudy
Partly Cloudy
63.8 °F
Feels Like 63.8 °F
N
0.0
Wind Variable Wind from North
Gusts 0.0 mph

Today
High -- | Low -- °F
--% Chance of Precip.
Yesterday
High -- | Low -- °F
Precip. -- in
Pressure 29.84 in
Visibility 10.0 miles
Clouds Few 7500 ft
Few 9000 ft
Dew Point 63 °F
Humidity 96%
Rainfall 0.27 in
Snow Depth Not available.
7:02 AM 7:30 PM
New Moon, 1% visible
METAR KOFP 282154Z AUTO 26006KT 10SM FEW075 FEW090 22/12 A2984 RMK AO2 LTG DSNT E SLP103 T02220122
Pressure 29.84 in
Visibility 10.0 miles
Clouds Few 7500 ft
Few 9000 ft
Dew Point 63 °F
Humidity 96%
Rainfall 0.27 in
Snow Depth Not available.
7:02 AM 7:30 PM
New Moon, 1% visible
METAR KOFP 282154Z AUTO 26006KT 10SM FEW075 FEW090 22/12 A2984 RMK AO2 LTG DSNT E SLP103 T02220122

Get Severe Weather Alerts

Thanks for signing up!

Be on the lookout for a verification email in your inbox.

You'll start receiving the daily forecast at 8 AM.

×

10-Day Weather Forecast

Almanac

Astronomy

Mar. 28, 2017 Rise Set
Actual Time
Civil Twilight
Nautical Twilight
Astronomical Twilight
Moon
Length of Visible Light
Length of Day
Tomorrow will be .
, % of the Moon is Illuminated

Today's Extremes

State Highs State Lows

Community

WunderPhotos

Upload Photos

1,962,540 photos uploaded!

WunderBlog® & News

Nearby

Air Quality

  Air Quality AQ Index Pollutant
Not available.

Snow Depth

Station Depth Elevation

Earthquake Activity

City Distance Mag. Time & Date
Minimum magnitude displayed is 2.5.

Earthquake Activity

City Distance Mag. Time & Date
Minimum magnitude displayed is 2.5.

Coastal Water Temperatures

Place Temperature

Stations

Nearby Weather Stations

Station Location Temp. Windchill Dew Point Humidity Wind Precip. Elev Updated Type
                   

Watches & Warnings

There are currently no watches in effect.